Slide Mountain Weather observations

Data are for 10 minute period ending at time listed.
 Day   Time   Solar   Ave.   Ave.  Ave.  Vector  Max.    Baro.  
  of    of     Rad.   Air    Rel.  Wind   Wind   Wind   Press.  
Year   Day            Temp.  Hum.  Speed  Dir.   Gust           
2026   (PST)  Kw/m2    F      %     mph   deg.    mph     mb.   
-----------------------------------------------------------------
 126   12:10   0.86   47.9    37    8.7   346     17.8    717.9 
 126   12:20   0.86   47.4    36    9.7   359     17.3    717.9 
 126   12:30   0.85   47.4    34    9.5    15     16.7    717.9 
 126   12:40   0.85   47.8    34   10.8   358     17.1    717.9 
 126   12:50   0.84   47.9    34    7.5     8     12.8    718.0 
 126   13:00   0.84   48.5    33    7.4    25     13.3    718.0 
 126   13:10   0.83   48.9    31    6.6   335     12.8    717.9 
 126   13:20   0.82   48.9    31    9.2    19     17.8    717.9 
 126   13:30   0.81   49.3    31    8.2     1     14.6    717.9 
 126   13:40   0.79   49.3    33   10.0    12     16.2    718.0 
 126   13:50   0.78   49.6    31    7.3   349     12.4    718.0 
 126   14:00   0.77   49.9    31    9.3   358     15.2    717.9 
 126   14:10   0.75   50.3    31    7.2    11     15.2    717.9 
 126   14:20   0.73   50.5    31    8.0    13     11.7    717.9 
 126   14:30   0.71   50.5    30    5.6   340     11.5    717.8 
 126   14:40   0.69   50.8    30    8.7   358     17.5    717.7 
 126   14:50   0.67   50.5    30    8.9     7     14.8    717.7 
 126   15:00   0.65   49.9    32   10.1    25     16.7    717.7 
 126   15:10   0.62   51.4    31    3.6    47     10.5    717.6 
 126   15:20   0.60   53.0    30    1.0    67      2.5    717.6 
 126   15:30   0.57   55.0    29    0.5   221      3.3    717.7 
 126   15:40   0.55   52.9    30    5.8    58     15.3    717.6 
 126   15:50   0.52   51.6    31    3.5   104      9.2    717.7 
 126   16:00   0.49   52.4    29    1.4   142      7.3    717.7 
 126   16:10   0.46   51.3    32    6.6   106     11.2    717.7 
 126   16:20   0.43   50.3    32    7.4   107     13.7    717.7 
 126   16:30   0.41   50.4    32    3.9   107      5.9    717.7 
 126   16:40   0.38   51.4    32    0.0   107      1.2    717.8 
 126   16:50   0.35   51.6    32    2.0    25      6.2    717.8 
 126   17:00   0.32   50.8    33    4.1    53      7.7    717.8 
 126   17:10   0.29   50.2    34    3.0    68      4.3    717.8 
 126   17:20   0.26   50.1    34    4.8    31      8.3    717.8 
 126   17:30   0.23   51.2    32    0.5    39      4.0    717.8 
 126   17:40   0.21   51.1    34    3.7     6      5.7    717.8 
 126   17:50   0.18   50.9    34    3.6    29      7.9    717.8 
 126   18:00   0.15   50.7    34    6.0   347      9.2    717.8 
 126   18:10   0.12   50.5    34    4.3   353      6.8    717.8 
 126   18:20   0.09   50.7    34    2.8   311      4.8    717.8 
 126   18:30   0.06   50.2    36    5.7   318      9.9    717.8 
 126   18:40   0.04   49.4    39    7.8   314     11.7    717.9 
 126   18:50   0.01   48.6    41    4.5   304      8.8    717.9 
 126   19:00   0.00   47.6    43    7.6   296     11.6    717.9 
 126   19:10   0.00   47.2    42   10.9   303     14.5    717.9 
 126   19:20   0.00   47.3    41   11.5   302     14.2    718.0 
 126   19:30   0.00   47.3    41    9.8   310     13.3    718.1 
 126   19:40   0.00   47.2    41    8.7   312     10.9    718.1 
 126   19:50   0.00   47.0    42    6.9   287      9.3    718.2 
 126   20:00   0.00   45.9    60    9.7   251     12.0    718.2 
 126   20:10   0.00   45.9    51    9.5   271     11.3    718.3 
 126   20:20   0.00   45.7    57    8.4   290     10.2    718.3 
 126   20:30   0.00   45.8    61    9.6   298     13.0    718.4 
 126   20:40   0.00   45.2    68   10.9   299     13.8    718.4 
 126   20:50   0.00   45.1    70   10.7   301     14.5    718.5 
 126   21:00   0.00   44.9    70   11.8   307     15.2    718.5 
 126   21:10   0.00   44.7    69   10.9   312     13.8    718.5 
 126   21:20   0.00   45.2    64    9.3   317     12.7    718.5 
 126   21:30   0.00   45.3    62    9.8   318     12.3    718.5 
 126   21:40   0.00   45.5    62   11.4   321     14.4    718.5 
 126   21:50   0.00   45.9    56   13.0   324     15.9    718.4 
 126   22:00   0.00   46.2    56   11.7   325     14.0    718.4 
 126   22:10   0.00   46.1    56    9.8   323     13.1    718.4 
 126   22:20   0.00   46.5    54   11.3   330     14.4    718.4 
 126   22:30   0.00   46.4    54   11.3   330     13.8    718.4 
 126   22:40   0.00   46.3    55    9.3   328     11.1    718.5 
 126   22:50   0.00   46.7    53   10.7   340     13.0    718.4 
 126   23:00   0.00   47.0    52   10.4     1     15.5    718.5 
 126   23:10   0.00   47.2    51   10.3    18     13.8    718.5 
 126   23:20   0.00   47.3    50    8.9    19     10.8    718.5 
 126   23:30   0.00   47.4    50    5.1    25      8.3    718.4 
 126   23:40   0.00   47.3    50    3.0    25      4.8    718.4 
 126   23:50   0.00   47.4    49    0.0     0      0.0    718.4 
 127    0:00   0.00   47.4    48    0.0     0      0.0    718.4 
 127    0:10   0.00   47.2    49    0.0     0      0.0    718.4 
 127    0:20   0.00   46.9    50    0.0     0      0.0    718.4 
 127    0:30   0.00   46.7    51    0.0     0      0.0    718.4 
 127    0:40   0.00   46.5    52    0.2    25      1.4    718.3 
 127    0:50   0.00   46.3    54    0.5    25      1.8    718.3 
 127    1:00   0.00   45.9    57    2.4   255      4.1    718.2 
 127    1:10   0.00   45.3    59    7.0   244     10.1    718.1 
 127    1:20   0.00   44.9    61    9.1   241     10.5    718.1 
 127    1:30   0.00   44.6    62    9.1   238     10.9    718.0 
 127    1:40   0.00   44.6    63    9.2   233     10.8    717.9 
 127    1:50   0.00   44.6    63   10.1   234     13.4    717.9 
 127    2:00   0.00   44.4    66   11.9   245     14.0    717.8 
 127    2:10   0.00   44.5    63   12.1   242     14.0    717.8 
 127    2:20   0.00   44.4    64   13.1   240     14.9    717.8 
 127    2:30   0.00   44.3    64   13.8   235     17.1    717.7 
 127    2:40   0.00   44.3    63   15.1   237     18.0    717.6 
 127    2:50   0.00   44.2    65   15.1   241     20.3    717.6 
 127    3:00   0.00   43.8    70   14.4   246     19.6    717.6 
 127    3:10   0.00   43.6    70   13.8   248     16.3    717.5 
 127    3:20   0.00   43.5    67   13.7   253     17.3    717.5 
 127    3:30   0.00   43.4    65   12.3   257     17.3    717.5 
 127    3:40   0.00   43.4    63   15.6   254     19.6    717.3 
 127    3:50   0.00   43.2    64   16.5   252     20.2    717.3 
 127    4:00   0.00   43.0    64   18.9   253     23.4    717.2 
 127    4:10   0.00   42.7    65   20.3   256     23.1    717.1 
 127    4:20   0.00   42.6    64   22.0   258     24.6    717.0 
 127    4:30   0.00   42.8    63   21.4   262     24.2    717.0 
 127    4:40   0.00   42.5    64   17.3   264     21.3    717.1 
 127    4:50   0.00   42.2    64   17.3   268     24.0    717.1 
 127    5:00   0.01   42.5    63   20.9   261     25.6    717.0 
 127    5:10   0.01   42.9    60   23.8   256     27.5    716.9 
 127    5:20   0.03   43.6    57   25.3   250     28.1    716.9 
 127    5:30   0.05   43.7    54   26.6   248     31.6    716.9 
 127    5:40   0.08   44.2    52   29.5   244     34.5    716.8 
 127    5:50   0.12   44.0    50   28.9   245     34.5    716.9 
 127    6:00   0.14   43.9    49   28.9   243     33.7    717.0 
 127    6:10   0.17   43.9    48   28.1   244     33.0    717.0 
 127    6:20   0.20   44.0    49   29.0   245     33.2    717.0 
 127    6:30   0.23   44.2    49   25.9   246     30.0    717.1 
 127    6:40   0.26   44.4    49   27.1   246     35.1    717.1 
 127    6:50   0.29   44.6    48   24.7   245     30.0    717.2 
 127    7:00   0.32   45.0    47   22.0   245     28.6    717.3 
 127    7:10   0.35   45.4    46   21.6   248     26.8    717.3 
 127    7:20   0.38   45.7    44   21.3   243     28.7    717.3 
 127    7:30   0.40   45.9    43   22.9   242     28.6    717.4 
 127    7:40   0.43   46.1    41   20.0   239     26.8    717.5 
 127    7:50   0.46   46.3    39   22.0   242     28.5    717.5 
 127    8:00   0.49   46.4    39   21.6   243     28.0    717.5 
 127    8:10   0.52   46.4    37   21.2   244     27.2    717.5 
 127    8:20   0.54   46.5    36   21.8   245     29.7    717.5 
 127    8:30   0.57   46.8    35   19.3   244     25.8    717.5 
 127    8:40   0.59   47.0    34   17.4   244     24.7    717.6 
 127    8:50   0.62   47.6    33   15.7   245     23.8    717.7 
 127    9:00   0.64   48.1    33   13.4   243     23.2    717.7 
 127    9:10   0.67   48.0    32   15.2   241     22.4    717.7 
 127    9:20   0.69   48.5    30   13.6   238     20.2    717.7 
 127    9:30   0.71   49.6    31   10.6   240     15.3    717.7 
 127    9:40   0.73   49.8    32   11.4   242     17.7    717.8 
 127    9:50   0.75   49.4    30   14.5   239     22.4    717.8 
 127   10:00   0.76   48.9    31   16.6   244     26.1    717.8 
 127   10:10   0.78   49.0    32   16.9   246     24.4    717.8 
 127   10:20   0.79   49.3    38   14.8   241     22.8    717.9 
 127   10:30   0.81   49.5    40   15.5   244     23.8    717.9 
 127   10:40   0.82   49.7    40   14.3   250     24.4    717.9 
 127   10:50   0.82   50.0    41   10.9   235     21.4    717.9 
 127   11:00   0.84   50.5    43   11.6   236     19.2    717.7 
 127   11:10   0.85   50.7    42   14.0   243     22.9    717.7 
 127   11:20   0.85   50.1    38   19.8   244     30.6    717.5 
 127   11:30   0.86   50.6    34   18.0   247     30.1    717.5 
 127   11:40   0.86   51.1    43   14.9   244     25.5    717.5 
 127   11:50   0.86   51.1    46   16.8   239     25.5    717.4 
 127   12:00   0.86   50.3    46   18.0   238     23.1    717.4 

Return to Slide Mountain graphs page.


Western Regional Climate Center,wrcc@dri.edu